createdAt,value
2023-01-09T00:00:00.483Z,2.51
2023-01-09T00:03:13.338Z,2.42
2023-01-09T00:06:25.622Z,2.38
2023-01-09T00:09:38.004Z,2.19
2023-01-09T00:12:50.333Z,2.19
2023-01-09T00:16:02.900Z,2.19
2023-01-09T00:19:15.748Z,2.17
2023-01-09T00:22:28.168Z,2.15
2023-01-09T00:25:42.508Z,2.14
2023-01-09T00:28:56.876Z,1.92
2023-01-09T00:32:10.823Z,2.07
2023-01-09T00:35:24.738Z,1.93
2023-01-09T00:38:37.504Z,1.94
2023-01-09T00:41:52.996Z,1.87
2023-01-09T00:45:09.601Z,1.87
2023-01-09T00:48:26.883Z,1.86
2023-01-09T00:51:39.194Z,1.69
2023-01-09T00:54:52.342Z,1.79
2023-01-09T00:58:05.051Z,1.70
2023-01-09T01:01:17.375Z,1.78
2023-01-09T01:04:44.230Z,1.74
2023-01-09T01:07:56.449Z,1.71
2023-01-09T01:11:13.174Z,1.84
2023-01-09T01:14:25.213Z,1.78
2023-01-09T01:17:37.371Z,1.78
2023-01-09T01:20:50.952Z,1.73
2023-01-09T01:24:03.056Z,1.68
2023-01-09T01:27:15.097Z,1.69
2023-01-09T01:30:28.071Z,1.69
2023-01-09T01:33:41.275Z,1.71
2023-01-09T01:36:53.355Z,1.70
2023-01-09T01:40:05.726Z,1.66
2023-01-09T01:43:19.910Z,1.62
2023-01-09T01:46:32.668Z,1.65
2023-01-09T01:49:45.406Z,1.59
2023-01-09T01:53:03.896Z,1.58
2023-01-09T01:56:20.709Z,1.65
2023-01-09T01:59:37.551Z,1.62
2023-01-09T02:02:49.973Z,1.63
2023-01-09T02:06:04.463Z,1.62
2023-01-09T02:09:19.158Z,1.58
2023-01-09T02:12:33.574Z,1.67
2023-01-09T02:16:02.107Z,1.63
2023-01-09T02:19:25.375Z,1.66
2023-01-09T02:22:44.761Z,1.58
2023-01-09T02:26:26.098Z,1.58
2023-01-09T02:30:28.369Z,1.52
2023-01-09T02:33:52.419Z,1.55
2023-01-09T02:37:09.392Z,1.56
2023-01-09T02:40:26.104Z,1.53
2023-01-09T02:43:38.610Z,1.54
2023-01-09T02:46:51.199Z,1.51
2023-01-09T02:50:06.230Z,1.52
2023-01-09T02:53:41.290Z,1.51
2023-01-09T02:57:12.507Z,1.53
2023-01-09T03:00:34.815Z,1.53
2023-01-09T03:03:53.388Z,1.54
2023-01-09T03:07:11.610Z,1.53
2023-01-09T03:10:28.390Z,1.49
2023-01-09T03:13:46.419Z,1.44
2023-01-09T03:17:03.212Z,1.41
2023-01-09T03:20:20.765Z,1.38
2023-01-09T03:23:32.928Z,1.44
2023-01-09T03:26:45.395Z,1.50
2023-01-09T03:29:57.988Z,1.46
2023-01-09T03:33:10.543Z,1.50
2023-01-09T03:36:25.065Z,1.49
2023-01-09T03:39:37.571Z,1.51
2023-01-09T03:42:52.229Z,1.43
2023-01-09T03:46:04.647Z,1.38
2023-01-09T03:49:17.566Z,1.50
2023-01-09T03:52:29.654Z,1.59
2023-01-09T03:55:41.828Z,1.53
2023-01-09T03:58:54.486Z,1.47
2023-01-09T04:02:06.735Z,1.44
2023-01-09T04:05:19.344Z,1.48
2023-01-09T04:08:31.650Z,1.50
2023-01-09T04:11:43.706Z,1.68
2023-01-09T04:14:55.979Z,1.63
2023-01-09T04:18:08.633Z,1.69
2023-01-09T04:21:20.649Z,1.67
2023-01-09T04:24:32.796Z,1.78
2023-01-09T04:27:45.208Z,1.83
2023-01-09T04:30:57.355Z,1.84
2023-01-09T04:34:09.565Z,1.89
2023-01-09T04:37:22.004Z,1.93
2023-01-09T04:40:34.141Z,1.97
2023-01-09T04:43:46.253Z,2.03
2023-01-09T04:46:58.883Z,2.03
2023-01-09T04:50:12.610Z,2.11
2023-01-09T04:53:24.777Z,2.16
2023-01-09T04:56:37.102Z,2.13
2023-01-09T04:59:49.558Z,2.07
2023-01-09T05:03:02.874Z,1.89
2023-01-09T05:06:15.551Z,1.81
2023-01-09T05:09:27.986Z,1.81
2023-01-09T05:12:40.472Z,1.85
2023-01-09T05:15:52.572Z,1.91
2023-01-09T05:19:04.727Z,1.93
2023-01-09T05:22:16.926Z,1.97
2023-01-09T05:25:29.076Z,1.96
2023-01-09T05:28:41.276Z,2.02
2023-01-09T05:31:53.494Z,2.05
2023-01-09T05:35:05.746Z,2.08
2023-01-09T05:38:17.833Z,2.10
2023-01-09T05:41:30.077Z,2.14
2023-01-09T05:44:42.376Z,2.01
2023-01-09T05:47:54.425Z,2.02
2023-01-09T05:51:06.745Z,2.02
2023-01-09T05:54:19.003Z,2.08
2023-01-09T05:57:31.263Z,2.10
2023-01-09T06:00:43.480Z,2.07
2023-01-09T06:03:55.576Z,2.11
2023-01-09T06:07:07.689Z,2.13
2023-01-09T06:10:22.027Z,2.14
2023-01-09T06:13:34.297Z,2.21
2023-01-09T06:16:46.494Z,2.21
2023-01-09T06:19:58.618Z,2.16
2023-01-09T06:23:12.205Z,2.16
2023-01-09T06:26:25.119Z,2.12
2023-01-09T06:29:37.221Z,2.19
2023-01-09T06:32:49.352Z,2.16
2023-01-09T06:36:01.505Z,2.17
2023-01-09T06:39:14.108Z,2.27
2023-01-09T06:42:26.517Z,2.29
2023-01-09T06:45:38.589Z,2.30
2023-01-09T06:48:50.649Z,2.32
2023-01-09T06:52:04.874Z,2.34
2023-01-09T06:55:17.793Z,2.48
2023-01-09T06:58:29.995Z,2.75
2023-01-09T07:01:43.414Z,3.04
2023-01-09T07:04:55.972Z,3.15
2023-01-09T07:08:08.250Z,3.29
2023-01-09T07:11:20.303Z,3.44
2023-01-09T07:14:32.511Z,3.46
2023-01-09T07:17:44.756Z,3.43
2023-01-09T07:20:57.223Z,3.57
2023-01-09T07:24:09.597Z,3.61
2023-01-09T07:27:22.170Z,3.76
2023-01-09T07:30:34.196Z,3.57
2023-01-09T07:33:46.240Z,3.43
2023-01-09T07:36:58.365Z,3.54
2023-01-09T07:40:12.500Z,3.72
2023-01-09T07:43:24.877Z,3.86
2023-01-09T07:46:37.382Z,4.12
2023-01-09T07:49:49.404Z,4.38
2023-01-09T07:53:01.556Z,4.57
2023-01-09T07:56:14.831Z,4.79
2023-01-09T07:59:27.871Z,5.00
2023-01-09T08:02:40.136Z,5.13
2023-01-09T08:05:53.752Z,5.28
2023-01-09T08:09:05.840Z,5.40
2023-01-09T08:12:17.909Z,5.44
2023-01-09T08:15:30.925Z,5.40
2023-01-09T08:18:42.867Z,5.59
2023-01-09T08:21:55.014Z,5.81
2023-01-09T08:25:06.845Z,5.98
2023-01-09T08:28:18.919Z,5.95
2023-01-09T08:31:30.851Z,5.95
2023-01-09T08:34:42.913Z,5.94
2023-01-09T08:37:56.068Z,6.08
2023-01-09T08:41:09.971Z,6.17
2023-01-09T08:44:36.544Z,6.23
2023-01-09T08:47:48.457Z,6.30
2023-01-09T08:51:00.224Z,6.37
2023-01-09T08:54:12.702Z,6.70
2023-01-09T08:57:24.517Z,6.87
2023-01-09T09:00:36.961Z,6.99
2023-01-09T09:03:48.793Z,7.03
2023-01-09T09:07:00.576Z,7.03
2023-01-09T09:10:15.031Z,7.05
2023-01-09T09:13:26.801Z,7.06
2023-01-09T09:16:38.665Z,7.03
2023-01-09T09:19:50.707Z,7.12
2023-01-09T09:23:02.709Z,7.12
2023-01-09T09:26:14.959Z,7.24
2023-01-09T09:29:26.817Z,7.38
2023-01-09T09:32:39.153Z,7.54
2023-01-09T09:35:51.515Z,7.69
2023-01-09T09:39:03.420Z,7.73
2023-01-09T09:43:04.429Z,7.81
2023-01-09T09:46:22.817Z,7.90
2023-01-09T09:49:39.879Z,8.02
2023-01-09T09:52:57.326Z,7.49
2023-01-09T09:56:10.308Z,6.77
2023-01-09T09:59:26.927Z,6.47
2023-01-09T10:02:46.617Z,6.38
2023-01-09T10:06:00.456Z,6.34
2023-01-09T10:09:19.769Z,6.34
2023-01-09T10:12:37.232Z,6.34
2023-01-09T10:15:55.816Z,6.34
2023-01-09T10:19:19.459Z,6.41
2023-01-09T10:22:38.027Z,6.50
2023-01-09T10:25:55.596Z,6.64
2023-01-09T10:29:37.229Z,6.72
2023-01-09T10:33:01.400Z,6.80
2023-01-09T10:36:36.126Z,6.94
2023-01-09T10:39:53.591Z,7.43
2023-01-09T10:43:11.491Z,7.87
2023-01-09T10:46:29.296Z,8.44
2023-01-09T10:49:44.432Z,8.76
2023-01-09T10:52:59.349Z,8.98
2023-01-09T10:56:18.955Z,9.23
2023-01-09T10:59:31.578Z,9.43
2023-01-09T11:02:43.673Z,9.66
2023-01-09T11:06:00.744Z,9.87
2023-01-09T11:09:14.912Z,9.88
2023-01-09T11:12:34.106Z,9.96
2023-01-09T11:15:47.543Z,9.99
2023-01-09T11:19:02.523Z,10.06
2023-01-09T11:22:21.593Z,10.09
2023-01-09T11:25:34.844Z,9.92
2023-01-09T11:28:46.752Z,9.87
2023-01-09T11:32:02.180Z,9.78
2023-01-09T11:35:24.001Z,9.77
2023-01-09T11:38:40.172Z,9.74
2023-01-09T11:41:52.509Z,9.74
2023-01-09T11:45:06.831Z,9.70
2023-01-09T11:48:45.608Z,9.69
2023-01-09T11:52:20.480Z,9.69
2023-01-09T11:55:41.934Z,9.79
2023-01-09T11:58:47.428Z,9.79
2023-01-09T12:02:32.556Z,9.80
2023-01-09T12:05:52.439Z,9.79
2023-01-09T12:09:08.802Z,9.90
2023-01-09T12:12:29.337Z,10.02
2023-01-09T12:15:46.320Z,9.96
2023-01-09T12:19:09.143Z,9.92
2023-01-09T12:22:27.631Z,10.01
2023-01-09T12:25:52.371Z,10.09
2023-01-09T12:29:25.491Z,10.32
2023-01-09T12:32:52.143Z,10.47
2023-01-09T12:36:21.839Z,10.53
2023-01-09T12:39:43.419Z,10.61
2023-01-09T12:43:02.457Z,10.65
2023-01-09T12:46:22.697Z,10.71
2023-01-09T12:49:41.189Z,10.72
2023-01-09T12:52:59.954Z,10.69
2023-01-09T12:56:17.065Z,10.64
2023-01-09T12:59:32.649Z,10.62
2023-01-09T13:02:51.677Z,10.56
2023-01-09T13:06:04.634Z,10.45
2023-01-09T13:09:26.325Z,10.33
2023-01-09T13:12:43.073Z,10.23
2023-01-09T13:15:59.565Z,10.14
2023-01-09T13:19:19.342Z,10.05
2023-01-09T13:22:34.044Z,9.93
2023-01-09T13:25:54.094Z,9.83
2023-01-09T13:29:14.070Z,9.78
2023-01-09T13:32:43.228Z,9.73
2023-01-09T13:36:02.929Z,9.71
2023-01-09T13:39:25.477Z,9.67
2023-01-09T13:42:43.378Z,9.67
2023-01-09T13:45:58.847Z,9.63
2023-01-09T13:49:13.655Z,9.57
2023-01-09T13:52:43.375Z,9.55
2023-01-09T13:56:14.218Z,9.52
2023-01-09T13:59:35.561Z,9.49
2023-01-09T14:03:21.333Z,9.43
2023-01-09T14:06:33.373Z,9.26
2023-01-09T14:09:49.475Z,9.15
2023-01-09T14:13:03.023Z,9.05
2023-01-09T14:16:23.732Z,9.02
2023-01-09T14:19:44.774Z,9.01
2023-01-09T14:23:28.147Z,8.98
2023-01-09T14:26:25.516Z,8.97
2023-01-09T14:29:54.257Z,8.95
2023-01-09T14:33:09.204Z,8.92
2023-01-09T14:36:28.537Z,8.91
2023-01-09T14:39:42.562Z,8.88
2023-01-09T14:42:58.935Z,8.81
2023-01-09T14:46:19.708Z,8.83
2023-01-09T14:49:38.393Z,8.83
2023-01-09T14:52:56.095Z,8.77
2023-01-09T14:56:12.005Z,8.73
2023-01-09T14:59:24.540Z,8.65
2023-01-09T15:02:41.317Z,8.64
2023-01-09T15:05:56.064Z,8.59
2023-01-09T15:09:12.828Z,8.54
2023-01-09T15:12:28.350Z,8.49
2023-01-09T15:15:41.657Z,8.44
2023-01-09T15:18:57.788Z,8.41
2023-01-09T15:22:16.485Z,8.40
2023-01-09T15:25:40.226Z,8.39
2023-01-09T15:28:50.832Z,8.37
2023-01-09T15:32:08.327Z,8.38
2023-01-09T15:35:22.381Z,8.37
2023-01-09T15:38:37.699Z,8.29
2023-01-09T15:42:06.543Z,8.37
2023-01-09T15:45:32.117Z,8.37
2023-01-09T15:48:44.452Z,8.37
2023-01-09T15:51:57.489Z,8.13
2023-01-09T15:55:21.582Z,8.27
2023-01-09T15:58:36.773Z,8.18
2023-01-09T16:01:51.459Z,8.17
2023-01-09T16:05:04.208Z,8.25
2023-01-09T16:08:34.601Z,8.28
2023-01-09T16:11:52.124Z,8.29
2023-01-09T16:15:06.724Z,8.32
2023-01-09T16:18:31.396Z,8.32
2023-01-09T16:21:45.052Z,8.38
2023-01-09T16:24:59.169Z,8.41
2023-01-09T16:28:30.219Z,8.44
2023-01-09T16:31:42.668Z,8.45
2023-01-09T16:35:05.675Z,8.47
2023-01-09T16:38:21.158Z,8.43
2023-01-09T16:41:47.512Z,8.42
2023-01-09T16:45:00.367Z,8.44
2023-01-09T16:48:20.471Z,8.45
2023-01-09T16:51:33.024Z,8.47
2023-01-09T16:54:46.972Z,8.49
2023-01-09T16:57:59.597Z,8.51
2023-01-09T17:01:13.562Z,8.49
2023-01-09T17:04:28.251Z,8.50
2023-01-09T17:07:40.719Z,8.49
2023-01-09T17:10:52.630Z,8.49
2023-01-09T17:14:06.199Z,8.49
2023-01-09T17:17:19.962Z,8.45
2023-01-09T17:20:32.961Z,8.44
2023-01-09T17:23:44.879Z,8.45
2023-01-09T17:27:12.914Z,8.43
2023-01-09T17:30:26.755Z,8.43
2023-01-09T17:33:39.839Z,8.43
2023-01-09T17:36:53.026Z,8.42
2023-01-09T17:40:05.534Z,8.41
2023-01-09T17:43:19.064Z,8.40
2023-01-09T17:46:36.415Z,8.41
2023-01-09T17:49:48.866Z,8.40
2023-01-09T17:53:00.911Z,8.41
2023-01-09T17:56:15.773Z,8.39
2023-01-09T17:59:29.342Z,8.39
2023-01-09T18:02:41.544Z,8.37
2023-01-09T18:05:53.886Z,8.39
2023-01-09T18:09:06.708Z,8.41
2023-01-09T18:12:19.420Z,8.43
2023-01-09T18:15:31.478Z,8.42
2023-01-09T18:18:44.950Z,8.44
2023-01-09T18:21:59.056Z,8.42
2023-01-09T18:25:13.254Z,8.42
2023-01-09T18:28:25.723Z,8.42
2023-01-09T18:31:38.064Z,8.42
2023-01-09T18:34:50.244Z,8.43
2023-01-09T18:38:02.412Z,8.41
2023-01-09T18:41:14.704Z,8.40
2023-01-09T18:44:27.904Z,8.39
2023-01-09T18:47:39.814Z,8.40
2023-01-09T18:50:52.291Z,8.38
2023-01-09T18:54:04.768Z,8.40
2023-01-09T18:57:16.885Z,8.37
2023-01-09T19:00:29.595Z,8.36
2023-01-09T19:03:42.054Z,8.34
2023-01-09T19:06:56.199Z,8.33
2023-01-09T19:10:09.143Z,8.32
2023-01-09T19:13:21.129Z,8.30
2023-01-09T19:16:33.240Z,8.29
2023-01-09T19:19:45.679Z,8.27
2023-01-09T19:22:58.156Z,8.26
2023-01-09T19:26:13.509Z,8.23
2023-01-09T19:29:25.715Z,8.21
2023-01-09T19:32:39.923Z,8.19
2023-01-09T19:35:56.069Z,8.19
2023-01-09T19:39:10.194Z,8.17
2023-01-09T19:42:23.601Z,8.17
2023-01-09T19:45:35.682Z,8.19
2023-01-09T19:48:48.109Z,8.17
2023-01-09T19:52:01.187Z,8.15
2023-01-09T19:55:15.017Z,8.15
2023-01-09T19:58:27.869Z,8.15
2023-01-09T20:01:42.710Z,8.14
2023-01-09T20:04:55.459Z,8.11
2023-01-09T20:08:08.633Z,8.11
2023-01-09T20:11:21.744Z,8.11
2023-01-09T20:14:36.085Z,8.11
2023-01-09T20:17:48.338Z,8.12
2023-01-09T20:21:00.901Z,8.11
2023-01-09T20:24:15.322Z,8.08
2023-01-09T20:27:27.376Z,8.08
2023-01-09T20:30:39.442Z,8.08
2023-01-09T20:33:53.032Z,8.06
2023-01-09T20:37:05.408Z,8.05
2023-01-09T20:40:19.273Z,8.05
2023-01-09T20:43:32.055Z,8.03
2023-01-09T20:46:47.454Z,8.04
2023-01-09T20:49:59.895Z,7.95
2023-01-09T20:53:12.522Z,8.02
2023-01-09T20:56:24.858Z,8.02
2023-01-09T20:59:37.134Z,8.04
2023-01-09T21:02:49.456Z,8.01
2023-01-09T21:06:01.869Z,8.02
2023-01-09T21:09:14.626Z,8.01
2023-01-09T21:12:31.886Z,8.00
2023-01-09T21:15:45.219Z,7.99
2023-01-09T21:18:58.761Z,8.02
2023-01-09T21:22:11.189Z,7.99
2023-01-09T21:25:23.582Z,8.02
2023-01-09T21:28:37.958Z,8.02
2023-01-09T21:31:50.280Z,8.01
2023-01-09T21:35:04.919Z,7.98
2023-01-09T21:38:17.182Z,8.01
2023-01-09T21:41:43.433Z,8.01
2023-01-09T21:45:10.041Z,8.02
2023-01-09T21:48:23.634Z,8.01
2023-01-09T21:51:37.991Z,8.01
2023-01-09T21:54:50.742Z,7.99
2023-01-09T21:58:04.289Z,7.92
2023-01-09T22:01:16.553Z,7.88
2023-01-09T22:04:33.480Z,7.84
2023-01-09T22:07:45.799Z,7.77
2023-01-09T22:11:04.667Z,7.80
2023-01-09T22:14:19.694Z,7.74
2023-01-09T22:17:31.904Z,7.71
2023-01-09T22:20:44.162Z,7.68
2023-01-09T22:23:57.552Z,7.58
2023-01-09T22:27:09.823Z,7.55
2023-01-09T22:30:23.208Z,7.44
2023-01-09T22:33:35.574Z,7.34
2023-01-09T22:36:48.346Z,7.28
2023-01-09T22:40:00.548Z,7.29
2023-01-09T22:43:14.825Z,7.33
2023-01-09T22:46:27.269Z,7.23
2023-01-09T22:49:52.460Z,7.15
2023-01-09T22:52:53.640Z,7.17
2023-01-09T22:56:08.441Z,7.24
2023-01-09T22:59:20.567Z,7.29
2023-01-09T23:02:32.837Z,7.32
2023-01-09T23:05:45.285Z,7.32
2023-01-09T23:08:58.503Z,7.32
2023-01-09T23:12:11.558Z,7.34
2023-01-09T23:15:24.143Z,7.24
2023-01-09T23:18:36.796Z,7.21
2023-01-09T23:21:49.599Z,7.18
2023-01-09T23:25:01.702Z,7.18
2023-01-09T23:28:14.037Z,7.21
2023-01-09T23:31:26.457Z,7.13
2023-01-09T23:34:39.482Z,7.03
2023-01-09T23:37:51.643Z,6.99
2023-01-09T23:41:04.626Z,7.00
2023-01-09T23:44:16.849Z,6.98
2023-01-09T23:47:30.673Z,6.94
2023-01-09T23:50:43.881Z,6.91
2023-01-09T23:53:56.173Z,6.89
2023-01-09T23:57:08.765Z,6.90
